createdAt,value
2023-09-24T00:00:02.873Z,15.83
2023-09-24T00:00:19.002Z,15.81
2023-09-24T00:00:35.141Z,15.81
2023-09-24T00:00:51.284Z,15.79
2023-09-24T00:01:07.435Z,15.77
2023-09-24T00:01:23.645Z,15.74
2023-09-24T00:01:39.786Z,15.72
2023-09-24T00:01:55.938Z,15.72
2023-09-24T00:02:12.038Z,15.71
2023-09-24T00:02:28.213Z,15.73
2023-09-24T00:02:44.357Z,15.75
2023-09-24T00:03:00.536Z,15.77
2023-09-24T00:03:16.723Z,15.76
2023-09-24T00:03:32.990Z,15.72
2023-09-24T00:03:49.288Z,15.74
2023-09-24T00:04:05.057Z,15.76
2023-09-24T00:04:21.246Z,15.78
2023-09-24T00:04:37.412Z,15.8
2023-09-24T00:04:53.499Z,15.82
2023-09-24T00:05:25.794Z,15.85
2023-09-24T00:05:41.969Z,15.86
2023-09-24T00:05:58.140Z,15.85
2023-09-24T00:06:30.342Z,15.87
2023-09-24T00:06:46.494Z,15.87
2023-09-24T00:07:02.621Z,15.88
2023-09-24T00:07:34.923Z,15.85
2023-09-24T00:07:51.095Z,15.83
2023-09-24T00:08:07.219Z,15.81
2023-09-24T00:08:23.446Z,15.78
2023-09-24T00:08:39.573Z,15.79
2023-09-24T00:08:55.678Z,15.8
2023-09-24T00:09:11.806Z,15.82
2023-09-24T00:09:28.002Z,15.84
2023-09-24T00:09:44.097Z,15.83
2023-09-24T00:10:00.256Z,15.83
2023-09-24T00:10:16.387Z,15.85
2023-09-24T00:10:32.557Z,15.86
2023-09-24T00:10:48.677Z,15.86
2023-09-24T00:11:04.822Z,15.85
2023-09-24T00:11:20.988Z,15.83
2023-09-24T00:11:37.151Z,15.83
2023-09-24T00:11:53.329Z,15.83
2023-09-24T00:12:09.431Z,15.82
2023-09-24T00:12:25.766Z,15.83
2023-09-24T00:12:41.705Z,15.84
2023-09-24T00:12:57.829Z,15.85
2023-09-24T00:13:14.018Z,15.87
2023-09-24T00:13:30.167Z,15.88
2023-09-24T00:13:46.484Z,15.89
2023-09-24T00:14:02.442Z,15.88
2023-09-24T00:14:18.641Z,15.85
2023-09-24T00:14:34.765Z,15.83
2023-09-24T00:14:50.933Z,15.83
2023-09-24T00:15:07.012Z,15.84
2023-09-24T00:15:23.156Z,15.85
2023-09-24T00:15:39.288Z,15.87
2023-09-24T00:15:55.486Z,15.89
2023-09-24T00:16:11.520Z,15.89
2023-09-24T00:16:27.772Z,15.89
2023-09-24T00:16:43.900Z,15.9
2023-09-24T00:17:00.018Z,15.91
2023-09-24T00:17:16.182Z,15.91
2023-09-24T00:17:32.415Z,15.87
2023-09-24T00:17:48.544Z,15.85
2023-09-24T00:18:04.715Z,15.84
2023-09-24T00:18:21.123Z,15.83
2023-09-24T00:18:37.066Z,15.8
2023-09-24T00:18:53.038Z,15.81
2023-09-24T00:19:41.465Z,15.85
2023-09-24T00:20:29.933Z,15.82
2023-09-24T00:20:46.113Z,15.82
2023-09-24T00:21:34.494Z,15.87
2023-09-24T00:21:50.575Z,15.87
2023-09-24T00:22:38.997Z,15.9
2023-09-24T00:22:55.220Z,15.89
2023-09-24T00:23:43.665Z,15.84
2023-09-24T00:23:59.828Z,15.83
2023-09-24T00:24:48.247Z,15.85
2023-09-24T00:25:04.400Z,15.87
2023-09-24T00:25:52.820Z,15.88
2023-09-24T00:26:08.958Z,15.89
2023-09-24T00:26:57.461Z,15.88
2023-09-24T00:28:02.004Z,15.8
2023-09-24T00:29:06.581Z,15.82
2023-09-24T00:30:11.096Z,15.78
2023-09-24T00:31:15.723Z,15.7
2023-09-24T00:31:31.927Z,15.69
2023-09-24T00:32:20.301Z,15.7
2023-09-24T00:32:36.518Z,15.72
2023-09-24T00:33:25.175Z,15.8
2023-09-24T00:33:41.036Z,15.81
2023-09-24T00:34:29.482Z,15.83
2023-09-24T00:34:45.630Z,15.84
2023-09-24T00:35:34.186Z,15.85
2023-09-24T00:35:50.254Z,15.85
2023-09-24T00:36:38.646Z,15.79
2023-09-24T00:36:54.707Z,15.78
2023-09-24T00:37:43.136Z,15.74
2023-09-24T00:37:59.282Z,15.73
2023-09-24T00:38:47.831Z,15.71
2023-09-24T00:39:03.919Z,15.7
2023-09-24T00:39:52.320Z,15.67
2023-09-24T00:40:08.536Z,15.68
2023-09-24T00:41:08.272Z,15.65
2023-09-24T00:41:24.486Z,15.64
2023-09-24T00:41:40.588Z,15.64
2023-09-24T00:41:56.715Z,15.64
2023-09-24T00:42:12.831Z,15.65
2023-09-24T00:42:28.995Z,15.68
2023-09-24T00:42:45.135Z,15.7
2023-09-24T00:43:01.283Z,15.72
2023-09-24T00:43:17.426Z,15.74
2023-09-24T00:43:33.574Z,15.76
2023-09-24T00:43:49.958Z,15.77
2023-09-24T00:44:05.874Z,15.77
2023-09-24T00:44:22.011Z,15.76
2023-09-24T00:44:38.183Z,15.75
2023-09-24T00:45:26.623Z,15.79
2023-09-24T00:45:42.745Z,15.78
2023-09-24T00:46:31.162Z,15.78
2023-09-24T00:46:47.310Z,15.77
2023-09-24T00:47:19.663Z,15.78
2023-09-24T00:47:35.845Z,15.76
2023-09-24T00:47:51.976Z,15.74
2023-09-24T00:48:24.300Z,15.69
2023-09-24T00:48:40.514Z,15.68
2023-09-24T00:48:56.476Z,15.67
2023-09-24T00:49:28.764Z,15.71
2023-09-24T00:49:44.914Z,15.73
2023-09-24T00:50:01.067Z,15.75
2023-09-24T00:50:17.198Z,15.76
2023-09-24T00:50:33.470Z,15.76
2023-09-24T00:50:49.562Z,15.77
2023-09-24T00:51:05.636Z,15.77
2023-09-24T00:51:21.825Z,15.76
2023-09-24T00:51:37.933Z,15.75
2023-09-24T00:51:54.074Z,15.77
2023-09-24T00:52:10.233Z,15.76
2023-09-24T00:52:26.389Z,15.76
2023-09-24T00:52:42.502Z,15.73
2023-09-24T00:52:58.664Z,15.69
2023-09-24T00:53:14.808Z,15.67
2023-09-24T00:53:30.974Z,15.64
2023-09-24T00:53:47.404Z,15.62
2023-09-24T00:54:03.300Z,15.61
2023-09-24T00:54:19.389Z,15.61
2023-09-24T00:54:35.536Z,15.61
2023-09-24T00:54:51.677Z,15.61
2023-09-24T00:55:07.830Z,15.58
2023-09-24T00:55:23.970Z,15.57
2023-09-24T00:55:40.133Z,15.56
2023-09-24T00:55:56.263Z,15.56
2023-09-24T00:56:12.413Z,15.57
2023-09-24T00:56:28.614Z,15.6
2023-09-24T00:56:44.745Z,15.63
2023-09-24T00:57:00.890Z,15.65
2023-09-24T00:57:16.985Z,15.68
2023-09-24T00:57:33.150Z,15.7
2023-09-24T00:57:49.323Z,15.71
2023-09-24T00:58:05.430Z,15.72
2023-09-24T00:58:21.566Z,15.73
2023-09-24T00:58:37.718Z,15.73
2023-09-24T00:58:53.917Z,15.71
2023-09-24T00:59:26.158Z,15.69
2023-09-24T00:59:42.347Z,15.67
2023-09-24T00:59:58.502Z,15.66
2023-09-24T01:00:30.745Z,15.66
2023-09-24T01:00:46.879Z,15.67
2023-09-24T01:01:03.069Z,15.64
2023-09-24T01:01:35.354Z,15.62
2023-09-24T01:01:51.457Z,15.63
2023-09-24T01:02:07.632Z,15.64
2023-09-24T01:02:23.833Z,15.65
2023-09-24T01:02:40.036Z,15.66
2023-09-24T01:02:56.249Z,15.66
2023-09-24T01:03:12.359Z,15.66
2023-09-24T01:03:28.789Z,15.65
2023-09-24T01:03:44.749Z,15.63
2023-09-24T01:04:00.806Z,15.61
2023-09-24T01:04:16.978Z,15.6
2023-09-24T01:04:32.971Z,15.59
2023-09-24T01:04:49.061Z,15.6
2023-09-24T01:05:05.210Z,15.62
2023-09-24T01:05:21.378Z,15.62
2023-09-24T01:05:37.523Z,15.61
2023-09-24T01:05:53.704Z,15.59
2023-09-24T01:06:09.797Z,15.59
2023-09-24T01:06:25.957Z,15.61
2023-09-24T01:06:42.095Z,15.61
2023-09-24T01:06:58.238Z,15.62
2023-09-24T01:07:14.380Z,15.6
2023-09-24T01:07:30.514Z,15.57
2023-09-24T01:07:46.666Z,15.55
2023-09-24T01:08:02.808Z,15.56
2023-09-24T01:08:18.968Z,15.54
2023-09-24T01:08:35.156Z,15.52
2023-09-24T01:08:51.338Z,15.51
2023-09-24T01:09:07.398Z,15.51
2023-09-24T01:09:23.549Z,15.51
2023-09-24T01:09:39.712Z,15.5
2023-09-24T01:09:55.819Z,15.49
2023-09-24T01:10:11.934Z,15.48
2023-09-24T01:10:28.147Z,15.47
2023-09-24T01:10:44.263Z,15.47
2023-09-24T01:11:00.403Z,15.48
2023-09-24T01:11:16.546Z,15.49
2023-09-24T01:11:32.774Z,15.48
2023-09-24T01:11:49.013Z,15.48
2023-09-24T01:12:05.021Z,15.48
2023-09-24T01:12:21.152Z,15.48
2023-09-24T01:12:37.288Z,15.47
2023-09-24T01:12:53.425Z,15.47
2023-09-24T01:13:09.567Z,15.48
2023-09-24T01:13:25.733Z,15.49
2023-09-24T01:13:41.785Z,15.49
2023-09-24T01:13:58.043Z,15.48
2023-09-24T01:14:14.161Z,15.47
2023-09-24T01:14:30.355Z,15.46
2023-09-24T01:14:46.491Z,15.46
2023-09-24T01:15:02.622Z,15.46
2023-09-24T01:15:18.749Z,15.45
2023-09-24T01:15:34.916Z,15.45
2023-09-24T01:15:51.082Z,15.44
2023-09-24T01:16:07.210Z,15.42
2023-09-24T01:16:23.436Z,15.4
2023-09-24T01:16:39.482Z,15.39
2023-09-24T01:16:55.630Z,15.37
2023-09-24T01:17:44.100Z,15.37
2023-09-24T01:18:00.293Z,15.38
2023-09-24T01:18:48.727Z,15.39
2023-09-24T01:19:04.786Z,15.4
2023-09-24T01:19:53.208Z,15.38
2023-09-24T01:20:09.366Z,15.38
2023-09-24T01:20:57.796Z,15.44
2023-09-24T01:21:13.928Z,15.46
2023-09-24T01:22:02.417Z,15.5
2023-09-24T01:22:18.452Z,15.49
2023-09-24T01:23:06.883Z,15.53
2023-09-24T01:23:23.133Z,15.54
2023-09-24T01:24:11.598Z,15.6
2023-09-24T01:24:27.611Z,15.61
2023-09-24T01:25:16.235Z,15.58
2023-09-24T01:25:32.328Z,15.58
2023-09-24T01:26:20.823Z,15.58
2023-09-24T01:26:36.896Z,15.55
2023-09-24T01:27:25.303Z,15.51
2023-09-24T01:27:41.355Z,15.48
2023-09-24T01:28:29.920Z,15.42
2023-09-24T01:28:46.019Z,15.4
2023-09-24T01:29:34.467Z,15.45
2023-09-24T01:29:50.647Z,15.46
2023-09-24T01:30:39.042Z,15.49
2023-09-24T01:30:55.190Z,15.48
2023-09-24T01:31:43.643Z,15.48
2023-09-24T01:31:59.712Z,15.47
2023-09-24T01:32:48.205Z,15.46
2023-09-24T01:33:04.469Z,15.45
2023-09-24T01:33:53.157Z,15.4
2023-09-24T01:34:09.093Z,15.4
2023-09-24T01:34:25.206Z,15.41
2023-09-24T01:35:08.662Z,15.38
2023-09-24T01:35:24.824Z,15.38
2023-09-24T01:35:57.140Z,15.38
2023-09-24T01:36:13.227Z,15.37
2023-09-24T01:36:29.384Z,15.37
2023-09-24T01:36:45.531Z,15.35
2023-09-24T01:37:01.672Z,15.34
2023-09-24T01:37:17.834Z,15.33
2023-09-24T01:37:33.978Z,15.31
2023-09-24T01:37:50.115Z,15.33
2023-09-24T01:38:06.303Z,15.35
2023-09-24T01:38:22.447Z,15.34
2023-09-24T01:38:38.622Z,15.33
2023-09-24T01:38:54.776Z,15.32
2023-09-24T01:39:10.833Z,15.31
2023-09-24T01:39:26.987Z,15.3
2023-09-24T01:39:43.134Z,15.3
2023-09-24T01:39:59.277Z,15.32
2023-09-24T01:40:15.430Z,15.35
2023-09-24T01:40:31.573Z,15.38
2023-09-24T01:40:47.714Z,15.38
2023-09-24T01:41:03.845Z,15.37
2023-09-24T01:41:20.013Z,15.39
2023-09-24T01:41:36.200Z,15.4
2023-09-24T01:41:52.442Z,15.42
2023-09-24T01:42:08.462Z,15.44
2023-09-24T01:42:24.595Z,15.45
2023-09-24T01:42:40.731Z,15.46
2023-09-24T01:42:56.885Z,15.47
2023-09-24T01:43:13.014Z,15.48
2023-09-24T01:43:29.162Z,15.46
2023-09-24T01:43:45.358Z,15.44
2023-09-24T01:44:01.456Z,15.42
2023-09-24T01:44:17.609Z,15.43
2023-09-24T01:44:50.082Z,15.43
2023-09-24T01:45:06.031Z,15.44
2023-09-24T01:45:22.190Z,15.46
2023-09-24T01:45:54.498Z,15.47
2023-09-24T01:46:10.635Z,15.47
2023-09-24T01:46:26.819Z,15.46
2023-09-24T01:46:59.075Z,15.47
2023-09-24T01:47:15.202Z,15.47
2023-09-24T01:47:31.424Z,15.48
2023-09-24T01:47:47.603Z,15.5
2023-09-24T01:48:03.762Z,15.5
2023-09-24T01:48:19.889Z,15.49
2023-09-24T01:48:36.036Z,15.46
2023-09-24T01:48:52.100Z,15.44
2023-09-24T01:49:08.241Z,15.44
2023-09-24T01:49:24.399Z,15.44
2023-09-24T01:49:40.534Z,15.44
2023-09-24T01:49:56.660Z,15.45
2023-09-24T01:50:12.834Z,15.41
2023-09-24T01:50:29.066Z,15.38
2023-09-24T01:50:45.172Z,15.37
2023-09-24T01:51:01.280Z,15.37
2023-09-24T01:51:17.420Z,15.39
2023-09-24T01:51:33.533Z,15.4
2023-09-24T01:51:49.683Z,15.4
2023-09-24T01:52:05.836Z,15.38
2023-09-24T01:52:21.966Z,15.38
2023-09-24T01:52:54.260Z,15.38
2023-09-24T01:53:10.403Z,15.37
2023-09-24T01:53:26.640Z,15.39
2023-09-24T01:53:42.734Z,15.37
2023-09-24T01:53:58.959Z,15.39
2023-09-24T01:54:14.985Z,15.41
2023-09-24T01:54:31.318Z,15.42
2023-09-24T01:54:47.280Z,15.44
2023-09-24T01:55:03.413Z,15.46
2023-09-24T01:55:19.588Z,15.47
2023-09-24T01:55:35.728Z,15.5
2023-09-24T01:55:51.870Z,15.51
2023-09-24T01:56:08.064Z,15.52
2023-09-24T01:56:24.190Z,15.53
2023-09-24T01:56:40.335Z,15.52
2023-09-24T01:56:56.470Z,15.52
2023-09-24T01:57:12.602Z,15.53
2023-09-24T01:57:28.723Z,15.53
2023-09-24T01:57:44.876Z,15.53
2023-09-24T01:58:01.029Z,15.53
2023-09-24T01:58:17.162Z,15.53
2023-09-24T01:58:33.313Z,15.53
2023-09-24T01:58:49.474Z,15.53
2023-09-24T01:59:05.664Z,15.54
2023-09-24T01:59:21.781Z,15.51
2023-09-24T01:59:37.995Z,15.5
2023-09-24T01:59:54.096Z,15.5
2023-09-24T02:00:10.200Z,15.49
2023-09-24T02:00:26.401Z,15.48
2023-09-24T02:00:42.492Z,15.48
2023-09-24T02:00:58.668Z,15.49
2023-09-24T02:01:14.857Z,15.5
2023-09-24T02:01:30.948Z,15.51
2023-09-24T02:01:47.088Z,15.5
2023-09-24T02:02:03.293Z,15.49
2023-09-24T02:02:19.388Z,15.47
2023-09-24T02:02:35.572Z,15.46
2023-09-24T02:02:51.715Z,15.46
2023-09-24T02:03:07.889Z,15.43
2023-09-24T02:03:24.048Z,15.42
2023-09-24T02:03:40.235Z,15.4
2023-09-24T02:03:56.341Z,15.39
2023-09-24T02:04:12.371Z,15.39
2023-09-24T02:04:28.528Z,15.4
2023-09-24T02:04:44.674Z,15.42
2023-09-24T02:05:00.820Z,15.44
2023-09-24T02:05:16.965Z,15.45
2023-09-24T02:05:33.126Z,15.46
2023-09-24T02:05:49.319Z,15.46
2023-09-24T02:06:05.679Z,15.47
2023-09-24T02:06:21.553Z,15.48
2023-09-24T02:06:37.707Z,15.49
2023-09-24T02:06:53.834Z,15.49
2023-09-24T02:07:10.010Z,15.49
2023-09-24T02:07:26.135Z,15.5
2023-09-24T02:07:58.404Z,15.53
2023-09-24T02:08:14.570Z,15.53
2023-09-24T02:08:30.705Z,15.55
2023-09-24T02:09:03.030Z,15.56
2023-09-24T02:09:19.148Z,15.56
2023-09-24T02:09:35.280Z,15.54
2023-09-24T02:10:07.582Z,15.52
2023-09-24T02:10:23.724Z,15.49
2023-09-24T02:10:39.892Z,15.47
2023-09-24T02:10:56.012Z,15.46
2023-09-24T02:11:12.153Z,15.47
2023-09-24T02:11:28.330Z,15.46
2023-09-24T02:11:44.512Z,15.46
2023-09-24T02:12:00.667Z,15.46
2023-09-24T02:12:16.739Z,15.47
2023-09-24T02:12:32.883Z,15.46
2023-09-24T02:12:49.038Z,15.44
2023-09-24T02:13:05.171Z,15.45
2023-09-24T02:13:21.322Z,15.44
2023-09-24T02:13:37.474Z,15.42
2023-09-24T02:13:53.628Z,15.42
2023-09-24T02:14:09.775Z,15.42
2023-09-24T02:14:25.930Z,15.42
2023-09-24T02:14:58.251Z,15.44
2023-09-24T02:15:30.488Z,15.44
2023-09-24T02:16:02.778Z,15.43
2023-09-24T02:16:35.063Z,15.42
2023-09-24T02:17:07.372Z,15.41
2023-09-24T02:17:39.713Z,15.42
2023-09-24T02:18:12.018Z,15.45
2023-09-24T02:19:16.508Z,15.49
2023-09-24T02:20:21.100Z,15.54
2023-09-24T02:21:25.683Z,15.57
2023-09-24T02:21:57.972Z,15.58
2023-09-24T02:22:30.174Z,15.56
2023-09-24T02:23:02.542Z,15.57
2023-09-24T02:23:34.901Z,15.58
2023-09-24T02:24:07.169Z,15.6
2023-09-24T02:24:39.424Z,15.59
2023-09-24T02:25:11.710Z,15.57
2023-09-24T02:25:44.006Z,15.54
2023-09-24T02:26:16.317Z,15.52
2023-09-24T02:26:48.636Z,15.51
2023-09-24T02:27:20.875Z,15.52
2023-09-24T02:27:53.173Z,15.52
2023-09-24T02:28:25.636Z,15.53
2023-09-24T02:29:09.052Z,15.52
2023-09-24T02:29:25.288Z,15.52
2023-09-24T02:29:41.483Z,15.53
2023-09-24T02:29:57.623Z,15.53
2023-09-24T02:30:13.721Z,15.53
2023-09-24T02:30:31.618Z,15.54
2023-09-24T02:30:46.080Z,15.54
2023-09-24T02:31:02.170Z,15.54
2023-09-24T02:31:18.211Z,15.55
2023-09-24T02:31:34.387Z,15.55
2023-09-24T02:31:50.521Z,15.56
2023-09-24T02:32:06.632Z,15.56
2023-09-24T02:32:22.813Z,15.57
2023-09-24T02:32:39.003Z,15.55
2023-09-24T02:32:55.353Z,15.54
2023-09-24T02:33:11.347Z,15.54
2023-09-24T02:33:27.462Z,15.54
2023-09-24T02:33:43.574Z,15.54
2023-09-24T02:33:59.659Z,15.52
2023-09-24T02:34:15.796Z,15.49
2023-09-24T02:34:31.945Z,15.48
2023-09-24T02:34:48.085Z,15.46
2023-09-24T02:35:04.237Z,15.46
2023-09-24T02:35:20.394Z,15.46
2023-09-24T02:35:36.572Z,15.47
2023-09-24T02:35:52.724Z,15.48
2023-09-24T02:36:08.844Z,15.48
2023-09-24T02:36:24.947Z,15.5
2023-09-24T02:36:41.163Z,15.51
2023-09-24T02:36:57.258Z,15.52
2023-09-24T02:37:13.428Z,15.54
2023-09-24T02:37:29.545Z,15.53
2023-09-24T02:37:45.705Z,15.51
2023-09-24T02:38:01.849Z,15.5
2023-09-24T02:38:18.006Z,15.5
2023-09-24T02:38:50.301Z,15.52
2023-09-24T02:39:06.432Z,15.53
2023-09-24T02:39:22.563Z,15.54
2023-09-24T02:39:54.846Z,15.56
2023-09-24T02:40:11.010Z,15.58
2023-09-24T02:40:27.143Z,15.6
2023-09-24T02:40:59.448Z,15.63
2023-09-24T02:41:15.605Z,15.63
2023-09-24T02:41:31.732Z,15.64
2023-09-24T02:41:47.899Z,15.63
2023-09-24T02:42:04.036Z,15.61
2023-09-24T02:42:20.178Z,15.58
2023-09-24T02:42:36.333Z,15.57
2023-09-24T02:42:52.457Z,15.57
2023-09-24T02:43:08.587Z,15.58
2023-09-24T02:43:24.761Z,15.59
2023-09-24T02:43:40.880Z,15.61
2023-09-24T02:43:57.054Z,15.63
2023-09-24T02:44:13.191Z,15.63
2023-09-24T02:44:29.354Z,15.61
2023-09-24T02:44:45.495Z,15.57
2023-09-24T02:45:01.667Z,15.56
2023-09-24T02:45:17.785Z,15.55
2023-09-24T02:45:34.132Z,15.56
2023-09-24T02:45:50.151Z,15.54
2023-09-24T02:46:06.238Z,15.54
2023-09-24T02:46:22.399Z,15.54
2023-09-24T02:46:38.515Z,15.54
2023-09-24T02:46:54.658Z,15.51
2023-09-24T02:47:10.787Z,15.48
2023-09-24T02:47:27.005Z,15.44
2023-09-24T02:47:43.154Z,15.41
2023-09-24T02:47:59.424Z,15.4
2023-09-24T02:48:15.485Z,15.4
2023-09-24T02:48:31.555Z,15.39
2023-09-24T02:48:47.757Z,15.39
2023-09-24T02:49:03.809Z,15.39
2023-09-24T02:49:19.958Z,15.4
2023-09-24T02:49:36.092Z,15.39
2023-09-24T02:49:52.230Z,15.38
2023-09-24T02:50:08.391Z,15.39
2023-09-24T02:50:24.581Z,15.39
2023-09-24T02:50:40.718Z,15.4
2023-09-24T02:50:56.857Z,15.41
2023-09-24T02:51:12.977Z,15.4
2023-09-24T02:51:29.159Z,15.4
2023-09-24T02:51:45.278Z,15.39
2023-09-24T02:52:01.418Z,15.37
2023-09-24T02:52:17.550Z,15.36
2023-09-24T02:52:33.708Z,15.34
2023-09-24T02:52:49.847Z,15.31
2023-09-24T02:53:06.087Z,15.31
2023-09-24T02:53:22.148Z,15.33
2023-09-24T02:53:38.308Z,15.35
2023-09-24T02:53:54.445Z,15.36
2023-09-24T02:54:10.585Z,15.35
2023-09-24T02:54:26.721Z,15.33
2023-09-24T02:54:42.872Z,15.32
2023-09-24T02:54:58.999Z,15.32
2023-09-24T02:55:15.145Z,15.32
2023-09-24T02:55:31.360Z,15.32
2023-09-24T02:55:47.494Z,15.34
2023-09-24T02:56:03.580Z,15.34
2023-09-24T02:56:19.750Z,15.34
2023-09-24T02:56:35.896Z,15.36
2023-09-24T02:56:52.213Z,15.35
2023-09-24T02:57:08.184Z,15.35
2023-09-24T02:57:24.315Z,15.35
2023-09-24T02:57:40.463Z,15.35
2023-09-24T02:57:56.623Z,15.35
2023-09-24T02:58:12.759Z,15.33
2023-09-24T02:58:28.896Z,15.31
2023-09-24T02:58:45.041Z,15.31
2023-09-24T02:59:01.198Z,15.32
2023-09-24T02:59:17.339Z,15.32
2023-09-24T02:59:33.525Z,15.34
2023-09-24T02:59:49.686Z,15.36
2023-09-24T03:00:05.786Z,15.38
2023-09-24T03:00:21.932Z,15.41
2023-09-24T03:00:38.435Z,15.42
2023-09-24T03:00:54.259Z,15.43
2023-09-24T03:01:10.358Z,15.44
2023-09-24T03:01:26.550Z,15.44
2023-09-24T03:01:42.661Z,15.41
2023-09-24T03:01:59.878Z,15.4
2023-09-24T03:02:14.942Z,15.4
2023-09-24T03:02:31.319Z,15.41
2023-09-24T03:02:47.404Z,15.4
2023-09-24T03:03:03.505Z,15.41
2023-09-24T03:03:19.670Z,15.42
2023-09-24T03:03:35.792Z,15.42
2023-09-24T03:03:52.401Z,15.41
2023-09-24T03:04:08.150Z,15.42
2023-09-24T03:04:24.251Z,15.43
2023-09-24T03:04:40.417Z,15.43
2023-09-24T03:04:56.406Z,15.44
2023-09-24T03:05:12.548Z,15.44
2023-09-24T03:05:28.772Z,15.44
2023-09-24T03:05:45.162Z,15.46
2023-09-24T03:06:01.027Z,15.46
2023-09-24T03:06:17.125Z,15.45
2023-09-24T03:06:33.264Z,15.42
2023-09-24T03:06:49.407Z,15.35
2023-09-24T03:07:05.548Z,15.35
2023-09-24T03:07:21.690Z,15.35
2023-09-24T03:07:37.882Z,15.36
2023-09-24T03:07:56.498Z,15.34
2023-09-24T03:08:10.152Z,15.34
2023-09-24T03:08:26.363Z,15.35
2023-09-24T03:08:42.486Z,15.36
2023-09-24T03:08:58.588Z,15.35
2023-09-24T03:09:14.724Z,15.36
2023-09-24T03:09:30.884Z,15.37
2023-09-24T03:09:47.035Z,15.38
2023-09-24T03:10:03.178Z,15.4
2023-09-24T03:10:19.349Z,15.41
2023-09-24T03:10:35.453Z,15.41
2023-09-24T03:10:51.585Z,15.39
2023-09-24T03:11:07.755Z,15.39
2023-09-24T03:11:23.926Z,15.4
2023-09-24T03:11:40.062Z,15.4
2023-09-24T03:11:56.220Z,15.4
2023-09-24T03:12:12.329Z,15.4
2023-09-24T03:12:28.482Z,15.39
2023-09-24T03:13:16.916Z,15.41
2023-09-24T03:13:33.089Z,15.4
2023-09-24T03:14:21.413Z,15.45
2023-09-24T03:14:37.588Z,15.46
2023-09-24T03:15:26.133Z,15.51
2023-09-24T03:15:42.235Z,15.5
2023-09-24T03:16:30.691Z,15.46
2023-09-24T03:16:46.728Z,15.45
2023-09-24T03:17:35.314Z,15.48
2023-09-24T03:17:51.363Z,15.49
2023-09-24T03:18:39.892Z,15.48
2023-09-24T03:18:56.004Z,15.46
2023-09-24T03:19:44.459Z,15.38
2023-09-24T03:20:00.473Z,15.35
2023-09-24T03:20:49.027Z,15.35
2023-09-24T03:21:05.195Z,15.36
2023-09-24T03:21:53.503Z,15.41
2023-09-24T03:22:09.708Z,15.41
2023-09-24T03:23:09.451Z,15.39
2023-09-24T03:23:25.636Z,15.39
2023-09-24T03:23:41.796Z,15.4
2023-09-24T03:23:57.991Z,15.42
2023-09-24T03:24:14.031Z,15.44
2023-09-24T03:24:30.173Z,15.43
2023-09-24T03:24:46.302Z,15.41
2023-09-24T03:25:02.437Z,15.4
2023-09-24T03:25:18.708Z,15.39
2023-09-24T03:25:34.736Z,15.4
2023-09-24T03:25:50.924Z,15.4
2023-09-24T03:26:07.051Z,15.4
2023-09-24T03:26:23.190Z,15.39
2023-09-24T03:26:39.357Z,15.37
2023-09-24T03:26:55.520Z,15.36
2023-09-24T03:27:11.624Z,15.35
2023-09-24T03:27:27.757Z,15.34
2023-09-24T03:27:43.893Z,15.34
2023-09-24T03:28:00.062Z,15.36
2023-09-24T03:28:16.198Z,15.36
2023-09-24T03:28:32.353Z,15.35
2023-09-24T03:28:48.490Z,15.34
2023-09-24T03:29:04.641Z,15.31
2023-09-24T03:29:20.784Z,15.33
2023-09-24T03:29:36.967Z,15.31
2023-09-24T03:29:53.179Z,15.33
2023-09-24T03:30:09.224Z,15.33
2023-09-24T03:30:25.376Z,15.35
2023-09-24T03:30:41.504Z,15.35
2023-09-24T03:30:57.651Z,15.38
2023-09-24T03:31:13.796Z,15.39
2023-09-24T03:31:30.005Z,15.4
2023-09-24T03:31:46.203Z,15.4
2023-09-24T03:32:02.293Z,15.4
2023-09-24T03:32:18.390Z,15.4
2023-09-24T03:32:50.813Z,15.4
2023-09-24T03:33:07.078Z,15.4
2023-09-24T03:33:55.279Z,15.44
2023-09-24T03:34:11.392Z,15.44
2023-09-24T03:34:27.559Z,15.43
2023-09-24T03:34:43.689Z,15.42
2023-09-24T03:34:59.845Z,15.41
2023-09-24T03:35:15.993Z,15.42
2023-09-24T03:35:32.204Z,15.43
2023-09-24T03:35:48.319Z,15.46
2023-09-24T03:36:04.471Z,15.47
2023-09-24T03:36:20.570Z,15.47
2023-09-24T03:36:36.825Z,15.46
2023-09-24T03:36:52.931Z,15.45
2023-09-24T03:37:09.001Z,15.41
2023-09-24T03:37:25.149Z,15.41
2023-09-24T03:37:41.289Z,15.4
2023-09-24T03:37:57.441Z,15.41
2023-09-24T03:38:13.585Z,15.42
2023-09-24T03:38:29.748Z,15.44
2023-09-24T03:38:45.967Z,15.45
2023-09-24T03:39:02.102Z,15.45
2023-09-24T03:39:18.230Z,15.46
2023-09-24T03:39:34.341Z,15.46
2023-09-24T03:39:50.530Z,15.47
2023-09-24T03:40:06.586Z,15.47
2023-09-24T03:40:22.754Z,15.49
2023-09-24T03:40:38.918Z,15.49
2023-09-24T03:40:55.089Z,15.51
2023-09-24T03:41:11.232Z,15.5
2023-09-24T03:41:27.416Z,15.51
2023-09-24T03:41:43.570Z,15.52
2023-09-24T03:41:59.660Z,15.51
2023-09-24T03:42:15.758Z,15.51
2023-09-24T03:42:31.927Z,15.52
2023-09-24T03:42:48.066Z,15.52
2023-09-24T03:43:04.213Z,15.55
2023-09-24T03:43:20.358Z,15.56
2023-09-24T03:43:52.647Z,15.57
2023-09-24T03:44:08.803Z,15.58
2023-09-24T03:44:24.968Z,15.59
2023-09-24T03:44:57.342Z,15.61
2023-09-24T03:45:13.368Z,15.63
2023-09-24T03:45:29.513Z,15.64
2023-09-24T03:45:45.793Z,15.62
2023-09-24T03:46:01.927Z,15.63
2023-09-24T03:46:17.994Z,15.64
2023-09-24T03:46:34.098Z,15.65
2023-09-24T03:46:50.260Z,15.64
2023-09-24T03:47:06.394Z,15.64
2023-09-24T03:47:22.545Z,15.65
2023-09-24T03:47:38.781Z,15.65
2023-09-24T03:47:54.948Z,15.67
2023-09-24T03:48:11.100Z,15.67
2023-09-24T03:48:27.187Z,15.66
2023-09-24T03:48:43.321Z,15.66
2023-09-24T03:48:59.404Z,15.66
2023-09-24T03:49:15.553Z,15.66
2023-09-24T03:49:31.692Z,15.66
2023-09-24T03:49:47.827Z,15.66
2023-09-24T03:50:03.992Z,15.66
2023-09-24T03:50:20.117Z,15.65
2023-09-24T03:50:36.301Z,15.66
2023-09-24T03:50:52.450Z,15.65
2023-09-24T03:51:08.558Z,15.64
2023-09-24T03:51:24.719Z,15.64
2023-09-24T03:51:40.853Z,15.65
2023-09-24T03:51:57.001Z,15.66
2023-09-24T03:52:13.137Z,15.66
2023-09-24T03:52:29.293Z,15.66
2023-09-24T03:52:45.433Z,15.67
2023-09-24T03:53:01.577Z,15.69
2023-09-24T03:53:17.734Z,15.7
2023-09-24T03:53:33.895Z,15.7
2023-09-24T03:53:50.323Z,15.71
2023-09-24T03:54:06.195Z,15.7
2023-09-24T03:54:22.346Z,15.69
2023-09-24T03:54:38.452Z,15.68
2023-09-24T03:54:54.622Z,15.68
2023-09-24T03:55:10.748Z,15.69
2023-09-24T03:55:26.934Z,15.69
2023-09-24T03:55:42.962Z,15.7
2023-09-24T03:55:59.192Z,15.71
2023-09-24T03:56:15.329Z,15.71
2023-09-24T03:56:31.532Z,15.73
2023-09-24T03:56:47.675Z,15.74
2023-09-24T03:57:03.784Z,15.76
2023-09-24T03:57:19.915Z,15.77
2023-09-24T03:57:36.078Z,15.79
2023-09-24T03:57:52.222Z,15.8
2023-09-24T03:58:08.355Z,15.82
2023-09-24T03:58:24.504Z,15.83
2023-09-24T03:58:40.634Z,15.82
2023-09-24T03:58:56.791Z,15.82
2023-09-24T03:59:12.951Z,15.82
2023-09-24T03:59:29.124Z,15.82
2023-09-24T03:59:45.251Z,15.82
2023-09-24T04:00:01.405Z,15.83
2023-09-24T04:00:17.508Z,15.83
2023-09-24T04:00:33.652Z,15.83
2023-09-24T04:00:49.824Z,15.83
2023-09-24T04:01:05.976Z,15.82
2023-09-24T04:01:22.114Z,15.83
2023-09-24T04:01:38.296Z,15.83
2023-09-24T04:01:54.410Z,15.83
2023-09-24T04:02:10.560Z,15.84
2023-09-24T04:02:26.698Z,15.85
2023-09-24T04:02:42.933Z,15.85
2023-09-24T04:02:59.084Z,15.85
2023-09-24T04:03:15.345Z,15.86
2023-09-24T04:03:31.334Z,15.87
2023-09-24T04:03:47.736Z,15.87
2023-09-24T04:04:03.725Z,15.88
2023-09-24T04:04:19.796Z,15.88
2023-09-24T04:04:35.865Z,15.88
2023-09-24T04:04:51.984Z,15.88
2023-09-24T04:05:08.122Z,15.88
2023-09-24T04:05:25.922Z,15.87
2023-09-24T04:05:56.617Z,15.87
2023-09-24T04:06:12.730Z,15.88
2023-09-24T04:06:28.873Z,15.89
2023-09-24T04:07:01.160Z,15.89
2023-09-24T04:07:17.293Z,15.91
2023-09-24T04:07:33.446Z,15.9
2023-09-24T04:08:05.745Z,15.89
2023-09-24T04:08:21.870Z,15.87
2023-09-24T04:08:38.065Z,15.87
2023-09-24T04:08:54.228Z,15.87
2023-09-24T04:09:10.321Z,15.87
2023-09-24T04:09:26.458Z,15.88
2023-09-24T04:09:42.616Z,15.88
2023-09-24T04:09:58.754Z,15.89
2023-09-24T04:10:31.042Z,15.89
2023-09-24T04:10:47.186Z,15.9
2023-09-24T04:11:35.649Z,15.93
2023-09-24T04:11:51.832Z,15.94
2023-09-24T04:12:40.144Z,15.96
2023-09-24T04:12:56.361Z,15.95
2023-09-24T04:13:44.787Z,15.94
2023-09-24T04:14:00.930Z,15.93
2023-09-24T04:14:49.408Z,15.93
2023-09-24T04:15:05.530Z,15.93